< < Back
Terminal Aerodrome Forecast


Current Version              Previous Versions:   1  2  3  4  5  6  7  8  9  

Terminal Aerodrome Forecast

828
FTUS42 KTAE 042203 AAB
TAFABY
TAF AMD
KABY 042203Z 0422/0518 22006KT P6SM SCT040
      TEMPO 0422/0423 18010G20KT
     FM050000 20003KT P6SM SCT250
     FM051400 23009KT P6SM SCT030=



Latest METAR

238
SAUS70 KWBC 050200 RRC
MTRABY
METAR KABY 050153Z AUTO 24003KT 10SM CLR 27/23 A3003 RMK AO2 SLP166
T02720228


USA.gov is the U.S. government's official web portal to all federal, state and local government web resources and services.